AirNav   Air Wisconsin Up To $57,000 Bonus
 
 805 users online  

21W Ranger Creek Airport
Greenwater, Washington, USA

GOING TO GREENWATER?


FAA INFORMATION EFFECTIVE 26 MARCH 2020

Location

FAA Identifier: 21W
Lat/Long: 47-00-47.3000N 121-32-01.2000W
47-00.788333N 121-32.020000W
47.0131389,-121.5336667
(estimated)
Elevation: 2650 ft. / 808 m (estimated)
Variation: 19E (1995)
From city: 10 miles SE of GREENWATER, WA
Time zone: UTC -7 (UTC -8 during Standard Time)
Zip code: 98022

Airport Operations

Airport use: Open to the public
Activation date: 03/1997
Control tower: no
ARTCC: SEATTLE CENTER
FSS: SEATTLE FLIGHT SERVICE STATION
NOTAMs facility: SEA (NOTAM-D service available)
Attendance: UNATNDD
Wind indicator: yes
Segmented circle: no

Airport Communications

CTAF: 122.9

Nearby radio navigation aids

VOR radial/distance  VOR name  Freq  Var
TCMr087/39.3MCCHORD VORTAC109.6015E

Airport Services

Runway Information

Runway 15/33

Dimensions: 2875 x 30 ft. / 876 x 9 m
Surface: asphalt, in good condition
RUNWAY 15  RUNWAY 33
Latitude: 47-01.016428N47-00.560888N
Longitude: 121-32.112878W121-31.926357W
Elevation: 2558.0 ft.2583.0 ft.
Traffic pattern: leftleft
Runway heading: 145 magnetic, 164 true325 magnetic, 344 true
Markings: numbers only, in good conditionnumbers only, in good condition
Obstructions: 100 ft. trees, 1406 ft. from runway, 12:1 slope to clear
RWY 15 2 FT SIGN, 45 FT RIGHT AND 11 FT FROM THR.
55 ft. trees, 334 ft. from runway, 2:1 slope to clear
HAS +95 FT TREES 90 FT RIGHT OF CNTRLN & 80 FT TREES 84 FT LEFT OF CNTRLN. 2 FT SIGNS, 35 FT RIGHT AND 43 FT LEFT AND 11 FT FRM THR.

Airport Ownership and Management from official FAA records

Ownership: Publicly-owned
Owner: WSDOT AVIATION DIVISION
7702 TERMINAL STREET SW
TUMWATER, WA 98501-7264
Phone (800) 552-0666
Manager: G. PAUL WOLF
7702 TERMINAL STREET SW
TUMWATER, WA 98501-7264
Phone (360) 618-2477

Airport Operational Statistics

Aircraft operations: avg 38/month *
56% military
44% local general aviation
* for 12-month period ending 31 December 2017

Additional Remarks

CLSD 1 OCT TO 1 JUN EXC FOR APPROVED MIL & PUBLIC SAFETY/LAW ENFORCEMENT HELI OPS.
GUARDRAIL AND ROAD RUNS FULL LEN OF EASTSIDE OF RWY.
FOR CD CTC SEATTLE ARTCC AT 253-351-3694.
VEHICLES, PEDESTRIANS, & ANIMALS ON & INVOF RY.
TREES ALONG SIDES OF RY.
USFS CAMPGROUNDS E & N OF RY.
CTC WA STATE AVIATION DIVISION 360-709-8015 OR 1-800-552-0666 WA AREA FOR FACILITY INFO PRIOR TO USE.
FOR ACFT ACCIDENTS/INCIDENTS CTC WA STATE EMERGENCY OPERATIONS CENTER 800-258-5990.
MOUNTAINOUS TRRN SURROUNDS AIRPORT.

Instrument Procedures

There are no published instrument procedures at 21W.

Some nearby airports with instrument procedures:

KPLU - Pierce County Airport - Thun Field (31 nm W)
S50 - Auburn Municipal Airport (34 nm NW)
KTCM - McChord Field Airport (Joint Base Lewis-McChord) (39 nm W)
KRNT - Renton Municipal Airport (40 nm NW)
KELN - Bowers Field Airport (41 nm E)
 
Loc | Ops | Rwys | IFR | FBO | Links
Com | Nav | Svcs | Stats | Notes
Area around 21W (Ranger Creek Airport)
 
Road maps at: MapQuest Bing Google
 
Aerial photo
WARNING: Photo may not be current or correct
Aerial photo of 21W (Ranger Creek Airport)
Photo by Tom Jensen, Washington Pilots Association
Photo taken 15-Oct-2012
looking northwest.

Do you have a better or more recent aerial photo of Ranger Creek Airport that you would like to share? If so, please send us your photo.

 
Sectional chart

 
Airport distance calculator
Flying to Ranger Creek Airport? Find the distance to fly.

From to 21W

Sunrise and sunset
Times for 03-Apr-2020
 Local
(UTC-7)
 Zulu
(UTC)
Morning civil twilight06:0913:09
Sunrise06:4013:40
Sunset19:3802:38
Evening civil twilight20:0903:09

Current date and time
Zulu (UTC)  03-Apr-2020 22:41:08
Local (UTC-7)  03-Apr-2020 15:41:08
 
METAR
KSMP 
18nm NE 
032156Z AUTO 27009G17KT 1SM -SN BR BKN012 OVC019 M03/M05 A2986 RMK AO2 SLP144 P0002 T10281050
KPLU 
31nm W 
032215Z AUTO 23007G13KT 10SM SCT027 BKN033 OVC070 08/02 A3005 RMK AO2
TAF
KTCM 
39nm W 
032100Z 0321/0503 24012G18KT 9999 SCT030 OVC050 620804 QNH3007INS TEMPO 0321/0322 8000 -SHRA BKN030 610309 BECMG 0405/0406 VRB04KT 9999 FEW030 SCT060 QNH2998INS BECMG 0415/0416 04009KT 9999 BKN030 OVC130 620509 QNH2984INS TX08/0323Z TNM01/0412Z
KSEA 
41nm NW 
032104Z 0321/0424 22015G25KT P6SM VCSH SCT025 SCT050 FM040000 22012KT P6SM -SHRA SCT025 OVC050 FM040300 33005KT P6SM -SHRA SCT025 OVC050 FM040900 04004KT P6SM VCSH BKN030 BKN150 FM041200 05004KT P6SM SCT030 BKN150
KGRF 
42nm W 
032100Z 0321/0503 15012G18KT 9000 -RA BKN030 OVC060 620309 QNH3000INS BECMG 0401/0402 VRB06KT 9999 NSW SCT035 SCT080 QNH2980INS BECMG 0417/0418 03006KT 9999 SCT040 BKN150 QNH2970INS BECMG 0421/0422 01009KT 9999 VCSH BKN040 OVC150 610402 QNH2964INS TX08/0323Z TN00/0415Z
KBFI 
45nm NW 
032107Z 0321/0418 21010G20KT P6SM VCSH SCT030 BKN080 FM040000 20010KT P6SM -SHRA SCT030 BKN060 FM040300 33005KT P6SM -SHRA SCT030 BKN050 FM040900 04004KT P6SM VCSH BKN030 BKN150 FM041200 05004KT P6SM SCT030 BKN150
NOTAMs
Click for the latest NOTAMs
NOTAMs are issued by the DoD/FAA and will open in a separate window not controlled by AirNav.

 

 
 

Would you like to see your business listed on this page?

 If your business provides an interesting product or service to pilots, flight crews, aircraft, or users of the Ranger Creek Airport, you should consider listing it here.  To start the listing process, click on the button below
 
Add a business
 

Other Pages about Ranger Creek Airport

www.wsdot.wa.gov/...
 
Update a link
 
Copyright © AirNav, LLC. All rights reserved. Privacy Policy  Contact